sensor_id;sensor_type;location;lat;lon;timestamp;temperature;humidity
59505;DHT22;45321;53.200;5.814;2023-05-07T00:00:39;15.60;82.80
59505;DHT22;45321;53.200;5.814;2023-05-07T00:03:05;15.50;82.80
59505;DHT22;45321;53.200;5.814;2023-05-07T00:05:32;15.50;82.80
59505;DHT22;45321;53.200;5.814;2023-05-07T00:07:58;15.50;82.70
59505;DHT22;45321;53.200;5.814;2023-05-07T00:10:23;15.50;82.80
59505;DHT22;45321;53.200;5.814;2023-05-07T00:12:50;15.50;82.90
59505;DHT22;45321;53.200;5.814;2023-05-07T00:15:16;15.50;82.60
59505;DHT22;45321;53.200;5.814;2023-05-07T00:17:42;15.50;82.90
59505;DHT22;45321;53.200;5.814;2023-05-07T00:20:08;15.50;83.20
59505;DHT22;45321;53.200;5.814;2023-05-07T00:22:34;15.50;83.00
59505;DHT22;45321;53.200;5.814;2023-05-07T00:25:00;15.50;82.60
59505;DHT22;45321;53.200;5.814;2023-05-07T00:27:25;15.50;83.20
59505;DHT22;45321;53.200;5.814;2023-05-07T00:29:51;15.50;83.20
59505;DHT22;45321;53.200;5.814;2023-05-07T00:32:17;15.40;82.80
59505;DHT22;45321;53.200;5.814;2023-05-07T00:34:43;15.40;83.30
59505;DHT22;45321;53.200;5.814;2023-05-07T00:37:09;15.40;83.40
59505;DHT22;45321;53.200;5.814;2023-05-07T00:39:35;15.40;83.40
59505;DHT22;45321;53.200;5.814;2023-05-07T00:42:01;15.40;83.80
59505;DHT22;45321;53.200;5.814;2023-05-07T00:44:28;15.30;83.80
59505;DHT22;45321;53.200;5.814;2023-05-07T00:46:56;15.30;84.20
59505;DHT22;45321;53.200;5.814;2023-05-07T00:49:26;15.30;84.10
59505;DHT22;45321;53.200;5.814;2023-05-07T00:51:57;15.30;84.00
59505;DHT22;45321;53.200;5.814;2023-05-07T00:54:23;15.20;84.20
59505;DHT22;45321;53.200;5.814;2023-05-07T00:56:49;15.20;84.20
59505;DHT22;45321;53.200;5.814;2023-05-07T00:59:15;15.20;84.10
59505;DHT22;45321;53.200;5.814;2023-05-07T01:01:40;15.20;84.10
59505;DHT22;45321;53.200;5.814;2023-05-07T01:04:06;15.20;84.30
59505;DHT22;45321;53.200;5.814;2023-05-07T01:06:32;15.20;84.30
59505;DHT22;45321;53.200;5.814;2023-05-07T01:08:59;15.20;84.40
59505;DHT22;45321;53.200;5.814;2023-05-07T01:11:25;15.20;84.70
59505;DHT22;45321;53.200;5.814;2023-05-07T01:13:51;15.20;84.80
59505;DHT22;45321;53.200;5.814;2023-05-07T01:16:17;15.20;84.90
59505;DHT22;45321;53.200;5.814;2023-05-07T01:18:43;15.10;84.80
59505;DHT22;45321;53.200;5.814;2023-05-07T01:21:11;15.20;84.80
59505;DHT22;45321;53.200;5.814;2023-05-07T01:23:37;15.00;84.80
59505;DHT22;45321;53.200;5.814;2023-05-07T01:26:03;15.00;85.00
59505;DHT22;45321;53.200;5.814;2023-05-07T01:28:29;15.00;84.80
59505;DHT22;45321;53.200;5.814;2023-05-07T01:31:00;15.00;85.10
59505;DHT22;45321;53.200;5.814;2023-05-07T01:33:31;14.90;85.00
59505;DHT22;45321;53.200;5.814;2023-05-07T01:35:59;15.00;84.90
59505;DHT22;45321;53.200;5.814;2023-05-07T01:38:28;15.00;85.30
59505;DHT22;45321;53.200;5.814;2023-05-07T01:40:54;14.90;85.40
59505;DHT22;45321;53.200;5.814;2023-05-07T01:43:20;14.90;85.30
59505;DHT22;45321;53.200;5.814;2023-05-07T01:45:47;14.90;85.30
59505;DHT22;45321;53.200;5.814;2023-05-07T01:48:14;14.80;85.30
59505;DHT22;45321;53.200;5.814;2023-05-07T01:50:41;14.80;85.80
59505;DHT22;45321;53.200;5.814;2023-05-07T01:53:08;14.80;85.90
59505;DHT22;45321;53.200;5.814;2023-05-07T01:55:34;14.70;85.70
59505;DHT22;45321;53.200;5.814;2023-05-07T01:58:00;14.70;86.30
59505;DHT22;45321;53.200;5.814;2023-05-07T02:00:25;14.70;86.10
59505;DHT22;45321;53.200;5.814;2023-05-07T02:02:51;14.70;85.90
59505;DHT22;45321;53.200;5.814;2023-05-07T02:05:18;14.60;86.10
59505;DHT22;45321;53.200;5.814;2023-05-07T02:07:43;14.70;86.40
59505;DHT22;45321;53.200;5.814;2023-05-07T02:10:09;14.70;85.90
59505;DHT22;45321;53.200;5.814;2023-05-07T02:12:35;14.70;85.90
59505;DHT22;45321;53.200;5.814;2023-05-07T02:15:01;14.60;85.90
59505;DHT22;45321;53.200;5.814;2023-05-07T02:17:27;14.60;86.00
59505;DHT22;45321;53.200;5.814;2023-05-07T02:19:52;14.60;85.90
59505;DHT22;45321;53.200;5.814;2023-05-07T02:22:18;14.60;86.00
59505;DHT22;45321;53.200;5.814;2023-05-07T02:24:44;14.50;85.80
59505;DHT22;45321;53.200;5.814;2023-05-07T02:27:10;14.60;86.20
59505;DHT22;45321;53.200;5.814;2023-05-07T02:29:35;14.50;86.00
59505;DHT22;45321;53.200;5.814;2023-05-07T02:32:01;14.60;86.20
59505;DHT22;45321;53.200;5.814;2023-05-07T02:34:27;14.50;86.10
59505;DHT22;45321;53.200;5.814;2023-05-07T02:36:52;14.50;85.90
59505;DHT22;45321;53.200;5.814;2023-05-07T02:39:18;14.40;86.10
59505;DHT22;45321;53.200;5.814;2023-05-07T02:41:44;14.50;85.90
59505;DHT22;45321;53.200;5.814;2023-05-07T02:44:09;14.40;86.10
59505;DHT22;45321;53.200;5.814;2023-05-07T02:46:35;14.30;86.20
59505;DHT22;45321;53.200;5.814;2023-05-07T02:49:01;14.30;85.90
59505;DHT22;45321;53.200;5.814;2023-05-07T02:51:27;14.30;85.80
59505;DHT22;45321;53.200;5.814;2023-05-07T02:53:52;14.30;85.70
59505;DHT22;45321;53.200;5.814;2023-05-07T02:56:18;14.30;85.90
59505;DHT22;45321;53.200;5.814;2023-05-07T02:58:44;14.20;86.20
59505;DHT22;45321;53.200;5.814;2023-05-07T03:01:09;14.20;86.20
59505;DHT22;45321;53.200;5.814;2023-05-07T03:03:35;14.20;86.30
59505;DHT22;45321;53.200;5.814;2023-05-07T03:06:01;14.20;86.30
59505;DHT22;45321;53.200;5.814;2023-05-07T03:08:27;14.20;86.20
59505;DHT22;45321;53.200;5.814;2023-05-07T03:10:53;14.20;86.10
59505;DHT22;45321;53.200;5.814;2023-05-07T03:13:19;14.20;86.10
59505;DHT22;45321;53.200;5.814;2023-05-07T03:15:44;14.10;86.00
59505;DHT22;45321;53.200;5.814;2023-05-07T03:18:10;14.20;86.10
59505;DHT22;45321;53.200;5.814;2023-05-07T03:20:36;14.10;86.20
59505;DHT22;45321;53.200;5.814;2023-05-07T03:23:02;14.10;86.10
59505;DHT22;45321;53.200;5.814;2023-05-07T03:25:28;14.10;85.70
59505;DHT22;45321;53.200;5.814;2023-05-07T03:27:56;14.10;86.00
59505;DHT22;45321;53.200;5.814;2023-05-07T03:30:22;14.10;86.10
59505;DHT22;45321;53.200;5.814;2023-05-07T03:32:48;14.00;85.80
59505;DHT22;45321;53.200;5.814;2023-05-07T03:35:14;14.00;85.60
59505;DHT22;45321;53.200;5.814;2023-05-07T03:37:40;14.00;86.00
59505;DHT22;45321;53.200;5.814;2023-05-07T03:40:06;14.00;85.70
59505;DHT22;45321;53.200;5.814;2023-05-07T03:42:33;14.00;86.10
59505;DHT22;45321;53.200;5.814;2023-05-07T03:44:59;13.90;86.00
59505;DHT22;45321;53.200;5.814;2023-05-07T03:47:24;13.90;86.10
59505;DHT22;45321;53.200;5.814;2023-05-07T03:49:50;13.80;86.20
59505;DHT22;45321;53.200;5.814;2023-05-07T03:52:18;13.80;86.10
59505;DHT22;45321;53.200;5.814;2023-05-07T03:54:48;13.70;86.20
59505;DHT22;45321;53.200;5.814;2023-05-07T03:57:14;13.70;86.40
59505;DHT22;45321;53.200;5.814;2023-05-07T03:59:39;13.70;86.30
59505;DHT22;45321;53.200;5.814;2023-05-07T04:02:05;13.60;86.20
59505;DHT22;45321;53.200;5.814;2023-05-07T04:04:32;13.60;86.20
59505;DHT22;45321;53.200;5.814;2023-05-07T04:06:58;13.60;86.40
59505;DHT22;45321;53.200;5.814;2023-05-07T04:09:25;13.60;86.10
59505;DHT22;45321;53.200;5.814;2023-05-07T04:11:51;13.60;86.50
59505;DHT22;45321;53.200;5.814;2023-05-07T04:14:16;13.50;86.50
59505;DHT22;45321;53.200;5.814;2023-05-07T04:16:42;13.60;86.50
59505;DHT22;45321;53.200;5.814;2023-05-07T04:19:08;13.60;86.50
59505;DHT22;45321;53.200;5.814;2023-05-07T04:21:34;13.50;86.50
59505;DHT22;45321;53.200;5.814;2023-05-07T04:23:59;13.50;86.40
59505;DHT22;45321;53.200;5.814;2023-05-07T04:26:25;13.50;86.20
59505;DHT22;45321;53.200;5.814;2023-05-07T04:28:51;13.50;86.30
59505;DHT22;45321;53.200;5.814;2023-05-07T04:31:17;13.50;86.20
59505;DHT22;45321;53.200;5.814;2023-05-07T04:33:42;13.50;86.50
59505;DHT22;45321;53.200;5.814;2023-05-07T04:36:08;13.40;86.30
59505;DHT22;45321;53.200;5.814;2023-05-07T04:38:34;13.40;86.20
59505;DHT22;45321;53.200;5.814;2023-05-07T04:41:04;13.40;85.70
59505;DHT22;45321;53.200;5.814;2023-05-07T04:43:30;13.40;85.80
59505;DHT22;45321;53.200;5.814;2023-05-07T04:45:56;13.30;85.90
59505;DHT22;45321;53.200;5.814;2023-05-07T04:48:22;13.30;85.90
59505;DHT22;45321;53.200;5.814;2023-05-07T04:50:51;13.40;86.10
59505;DHT22;45321;53.200;5.814;2023-05-07T04:53:17;13.50;86.00
59505;DHT22;45321;53.200;5.814;2023-05-07T04:55:43;13.50;86.00
59505;DHT22;45321;53.200;5.814;2023-05-07T04:58:09;13.40;85.60
59505;DHT22;45321;53.200;5.814;2023-05-07T05:00:35;13.40;85.70
59505;DHT22;45321;53.200;5.814;2023-05-07T05:03:01;13.40;85.90
59505;DHT22;45321;53.200;5.814;2023-05-07T05:05:27;13.30;86.00
59505;DHT22;45321;53.200;5.814;2023-05-07T05:07:52;13.40;85.70
59505;DHT22;45321;53.200;5.814;2023-05-07T05:10:18;13.40;85.60
59505;DHT22;45321;53.200;5.814;2023-05-07T05:12:44;13.40;85.80
59505;DHT22;45321;53.200;5.814;2023-05-07T05:15:12;13.40;85.80
59505;DHT22;45321;53.200;5.814;2023-05-07T05:17:38;13.30;85.70
59505;DHT22;45321;53.200;5.814;2023-05-07T05:20:04;13.40;86.00
59505;DHT22;45321;53.200;5.814;2023-05-07T05:22:31;13.30;86.00
59505;DHT22;45321;53.200;5.814;2023-05-07T05:24:57;13.40;85.80
59505;DHT22;45321;53.200;5.814;2023-05-07T05:27:23;13.30;85.70
59505;DHT22;45321;53.200;5.814;2023-05-07T05:29:49;13.30;85.80
59505;DHT22;45321;53.200;5.814;2023-05-07T05:32:15;13.30;85.60
59505;DHT22;45321;53.200;5.814;2023-05-07T05:34:41;13.30;85.70
59505;DHT22;45321;53.200;5.814;2023-05-07T05:37:07;13.30;85.70
59505;DHT22;45321;53.200;5.814;2023-05-07T05:39:32;13.30;85.90
59505;DHT22;45321;53.200;5.814;2023-05-07T05:41:58;13.30;85.90
59505;DHT22;45321;53.200;5.814;2023-05-07T05:44:24;13.30;86.10
59505;DHT22;45321;53.200;5.814;2023-05-07T05:46:50;13.30;85.90
59505;DHT22;45321;53.200;5.814;2023-05-07T05:49:16;13.30;85.70
59505;DHT22;45321;53.200;5.814;2023-05-07T05:51:42;13.30;85.80
59505;DHT22;45321;53.200;5.814;2023-05-07T05:54:08;13.30;86.00
59505;DHT22;45321;53.200;5.814;2023-05-07T05:56:34;13.30;85.90
59505;DHT22;45321;53.200;5.814;2023-05-07T05:58:59;13.30;85.80
59505;DHT22;45321;53.200;5.814;2023-05-07T06:01:25;13.30;85.60
59505;DHT22;45321;53.200;5.814;2023-05-07T06:03:51;13.30;85.80
59505;DHT22;45321;53.200;5.814;2023-05-07T06:06:17;13.30;85.70
59505;DHT22;45321;53.200;5.814;2023-05-07T06:08:43;13.40;85.90
59505;DHT22;45321;53.200;5.814;2023-05-07T06:11:08;13.40;85.90
59505;DHT22;45321;53.200;5.814;2023-05-07T06:13:34;13.50;85.70
59505;DHT22;45321;53.200;5.814;2023-05-07T06:16:00;13.50;85.60
59505;DHT22;45321;53.200;5.814;2023-05-07T06:18:25;13.50;85.50
59505;DHT22;45321;53.200;5.814;2023-05-07T06:20:52;13.50;85.10
59505;DHT22;45321;53.200;5.814;2023-05-07T06:23:21;13.50;85.40
59505;DHT22;45321;53.200;5.814;2023-05-07T06:25:50;13.60;85.70
59505;DHT22;45321;53.200;5.814;2023-05-07T06:28:16;13.60;85.10
59505;DHT22;45321;53.200;5.814;2023-05-07T06:30:42;13.60;85.10
59505;DHT22;45321;53.200;5.814;2023-05-07T06:33:08;13.70;84.50
59505;DHT22;45321;53.200;5.814;2023-05-07T06:35:33;13.60;84.80
59505;DHT22;45321;53.200;5.814;2023-05-07T06:38:00;13.70;85.00
59505;DHT22;45321;53.200;5.814;2023-05-07T06:40:26;13.70;84.60
59505;DHT22;45321;53.200;5.814;2023-05-07T06:42:51;13.70;85.20
59505;DHT22;45321;53.200;5.814;2023-05-07T06:45:17;13.70;84.80
59505;DHT22;45321;53.200;5.814;2023-05-07T06:47:43;13.80;84.60
59505;DHT22;45321;53.200;5.814;2023-05-07T06:50:09;13.80;84.80
59505;DHT22;45321;53.200;5.814;2023-05-07T06:52:35;13.80;84.90
59505;DHT22;45321;53.200;5.814;2023-05-07T06:55:01;13.80;84.70
59505;DHT22;45321;53.200;5.814;2023-05-07T06:57:27;13.90;84.20
59505;DHT22;45321;53.200;5.814;2023-05-07T06:59:52;13.90;84.10
59505;DHT22;45321;53.200;5.814;2023-05-07T07:02:18;13.90;84.00
59505;DHT22;45321;53.200;5.814;2023-05-07T07:04:44;13.90;84.10
59505;DHT22;45321;53.200;5.814;2023-05-07T07:07:10;13.90;84.60
59505;DHT22;45321;53.200;5.814;2023-05-07T07:09:36;14.00;85.00
59505;DHT22;45321;53.200;5.814;2023-05-07T07:12:02;14.00;84.00
59505;DHT22;45321;53.200;5.814;2023-05-07T07:14:28;14.10;84.30
59505;DHT22;45321;53.200;5.814;2023-05-07T07:16:53;14.00;83.90
59505;DHT22;45321;53.200;5.814;2023-05-07T07:19:19;14.10;83.70
59505;DHT22;45321;53.200;5.814;2023-05-07T07:21:45;14.10;84.00
59505;DHT22;45321;53.200;5.814;2023-05-07T07:24:12;14.10;83.60
59505;DHT22;45321;53.200;5.814;2023-05-07T07:26:38;14.10;83.80
59505;DHT22;45321;53.200;5.814;2023-05-07T07:29:05;14.20;83.10
59505;DHT22;45321;53.200;5.814;2023-05-07T07:31:32;14.20;83.60
59505;DHT22;45321;53.200;5.814;2023-05-07T07:33:58;14.30;83.40
59505;DHT22;45321;53.200;5.814;2023-05-07T07:36:23;14.30;83.60
59505;DHT22;45321;53.200;5.814;2023-05-07T07:38:49;14.40;83.50
59505;DHT22;45321;53.200;5.814;2023-05-07T07:41:15;14.40;83.00
59505;DHT22;45321;53.200;5.814;2023-05-07T07:43:40;14.40;83.30
59505;DHT22;45321;53.200;5.814;2023-05-07T07:46:06;14.50;83.00
59505;DHT22;45321;53.200;5.814;2023-05-07T07:48:33;14.50;82.60
59505;DHT22;45321;53.200;5.814;2023-05-07T07:50:59;14.50;83.00
59505;DHT22;45321;53.200;5.814;2023-05-07T07:53:24;14.50;82.60
59505;DHT22;45321;53.200;5.814;2023-05-07T07:55:50;14.60;82.30
59505;DHT22;45321;53.200;5.814;2023-05-07T07:58:16;14.60;82.30
59505;DHT22;45321;53.200;5.814;2023-05-07T08:00:42;14.60;82.30
59505;DHT22;45321;53.200;5.814;2023-05-07T08:03:11;14.60;82.00
59505;DHT22;45321;53.200;5.814;2023-05-07T08:05:36;14.60;81.90
59505;DHT22;45321;53.200;5.814;2023-05-07T08:08:04;14.60;82.20
59505;DHT22;45321;53.200;5.814;2023-05-07T08:10:29;14.70;82.00
59505;DHT22;45321;53.200;5.814;2023-05-07T08:12:59;14.70;81.80
59505;DHT22;45321;53.200;5.814;2023-05-07T08:15:25;14.70;82.00
59505;DHT22;45321;53.200;5.814;2023-05-07T08:17:50;14.80;81.70
59505;DHT22;45321;53.200;5.814;2023-05-07T08:20:16;14.80;81.60
59505;DHT22;45321;53.200;5.814;2023-05-07T08:22:42;14.90;81.90
59505;DHT22;45321;53.200;5.814;2023-05-07T08:25:08;15.00;81.10
59505;DHT22;45321;53.200;5.814;2023-05-07T08:27:34;15.00;80.80
59505;DHT22;45321;53.200;5.814;2023-05-07T08:29:59;15.00;81.10
59505;DHT22;45321;53.200;5.814;2023-05-07T08:32:25;15.00;81.10
59505;DHT22;45321;53.200;5.814;2023-05-07T08:34:51;15.00;81.30
59505;DHT22;45321;53.200;5.814;2023-05-07T08:37:17;15.10;81.10
59505;DHT22;45321;53.200;5.814;2023-05-07T08:39:42;15.20;81.00
59505;DHT22;45321;53.200;5.814;2023-05-07T08:42:09;15.30;81.30
59505;DHT22;45321;53.200;5.814;2023-05-07T08:44:38;15.30;81.10
59505;DHT22;45321;53.200;5.814;2023-05-07T08:47:06;15.60;81.10
59505;DHT22;45321;53.200;5.814;2023-05-07T08:49:33;15.70;80.00
59505;DHT22;45321;53.200;5.814;2023-05-07T08:51:59;15.70;79.20
59505;DHT22;45321;53.200;5.814;2023-05-07T08:54:26;15.70;79.50
59505;DHT22;45321;53.200;5.814;2023-05-07T08:56:53;15.70;79.80
59505;DHT22;45321;53.200;5.814;2023-05-07T08:59:18;15.80;79.70
59505;DHT22;45321;53.200;5.814;2023-05-07T09:01:44;15.90;79.40
59505;DHT22;45321;53.200;5.814;2023-05-07T09:04:10;16.00;79.30
59505;DHT22;45321;53.200;5.814;2023-05-07T09:06:36;16.20;79.00
59505;DHT22;45321;53.200;5.814;2023-05-07T09:09:03;16.30;79.30
59505;DHT22;45321;53.200;5.814;2023-05-07T09:11:30;16.40;78.10
59505;DHT22;45321;53.200;5.814;2023-05-07T09:13:57;16.40;77.70
59505;DHT22;45321;53.200;5.814;2023-05-07T09:16:25;16.50;77.60
59505;DHT22;45321;53.200;5.814;2023-05-07T09:18:52;16.50;77.60
59505;DHT22;45321;53.200;5.814;2023-05-07T09:21:19;16.50;77.00
59505;DHT22;45321;53.200;5.814;2023-05-07T09:23:47;16.50;76.70
59505;DHT22;45321;53.200;5.814;2023-05-07T09:26:14;16.50;77.50
59505;DHT22;45321;53.200;5.814;2023-05-07T09:28:40;16.50;77.30
59505;DHT22;45321;53.200;5.814;2023-05-07T09:31:10;16.50;76.60
59505;DHT22;45321;53.200;5.814;2023-05-07T09:33:37;16.50;76.60
59505;DHT22;45321;53.200;5.814;2023-05-07T09:36:08;16.40;77.10
59505;DHT22;45321;53.200;5.814;2023-05-07T09:38:34;16.40;76.60
59505;DHT22;45321;53.200;5.814;2023-05-07T09:41:09;16.50;77.50
59505;DHT22;45321;53.200;5.814;2023-05-07T09:43:36;16.60;77.30
59505;DHT22;45321;53.200;5.814;2023-05-07T09:46:25;16.60;76.90
59505;DHT22;45321;53.200;5.814;2023-05-07T09:48:53;16.70;76.30
59505;DHT22;45321;53.200;5.814;2023-05-07T09:51:29;16.80;76.20
59505;DHT22;45321;53.200;5.814;2023-05-07T09:53:56;16.90;76.70
59505;DHT22;45321;53.200;5.814;2023-05-07T09:56:23;17.00;75.70
59505;DHT22;45321;53.200;5.814;2023-05-07T09:58:50;17.10;75.00
59505;DHT22;45321;53.200;5.814;2023-05-07T10:01:17;17.20;75.10
59505;DHT22;45321;53.200;5.814;2023-05-07T10:03:45;17.40;75.50
59505;DHT22;45321;53.200;5.814;2023-05-07T10:06:12;17.60;74.70
59505;DHT22;45321;53.200;5.814;2023-05-07T10:08:39;17.70;73.80
59505;DHT22;45321;53.200;5.814;2023-05-07T10:11:05;17.80;73.30
59505;DHT22;45321;53.200;5.814;2023-05-07T10:13:33;17.80;73.40
59505;DHT22;45321;53.200;5.814;2023-05-07T10:16:02;17.80;73.00
59505;DHT22;45321;53.200;5.814;2023-05-07T10:18:30;17.80;73.60
59505;DHT22;45321;53.200;5.814;2023-05-07T10:21:02;18.00;73.80
59505;DHT22;45321;53.200;5.814;2023-05-07T10:23:31;18.00;71.90
59505;DHT22;45321;53.200;5.814;2023-05-07T10:25:59;18.20;73.30
59505;DHT22;45321;53.200;5.814;2023-05-07T10:28:26;18.20;72.40
59505;DHT22;45321;53.200;5.814;2023-05-07T10:33:40;18.40;71.60
59505;DHT22;45321;53.200;5.814;2023-05-07T10:36:06;18.60;72.60
59505;DHT22;45321;53.200;5.814;2023-05-07T10:38:33;18.80;72.20
59505;DHT22;45321;53.200;5.814;2023-05-07T10:40:59;19.00;71.30
59505;DHT22;45321;53.200;5.814;2023-05-07T10:43:25;19.10;70.30
59505;DHT22;45321;53.200;5.814;2023-05-07T10:46:19;19.30;70.70
59505;DHT22;45321;53.200;5.814;2023-05-07T10:51:26;19.50;68.80
59505;DHT22;45321;53.200;5.814;2023-05-07T10:56:37;19.70;67.80
59505;DHT22;45321;53.200;5.814;2023-05-07T10:59:30;19.80;67.90
59505;DHT22;45321;53.200;5.814;2023-05-07T11:02:03;19.90;68.70
59505;DHT22;45321;53.200;5.814;2023-05-07T11:04:29;20.00;67.00
59505;DHT22;45321;53.200;5.814;2023-05-07T11:12:16;20.50;67.90
59505;DHT22;45321;53.200;5.814;2023-05-07T11:14:42;20.60;66.00
59505;DHT22;45321;53.200;5.814;2023-05-07T11:17:09;20.60;63.90
59505;DHT22;45321;53.200;5.814;2023-05-07T11:25:03;20.70;64.30
59505;DHT22;45321;53.200;5.814;2023-05-07T11:27:29;20.80;66.50
59505;DHT22;45321;53.200;5.814;2023-05-07T11:29:55;20.90;66.60
59505;DHT22;45321;53.200;5.814;2023-05-07T11:32:26;21.20;66.00
59505;DHT22;45321;53.200;5.814;2023-05-07T11:34:57;21.50;64.70
59505;DHT22;45321;53.200;5.814;2023-05-07T11:37:24;21.70;64.30
59505;DHT22;45321;53.200;5.814;2023-05-07T11:39:50;21.80;63.30
59505;DHT22;45321;53.200;5.814;2023-05-07T11:42:40;22.00;62.90
59505;DHT22;45321;53.200;5.814;2023-05-07T11:45:07;22.20;63.40
59505;DHT22;45321;53.200;5.814;2023-05-07T11:47:34;22.30;58.70
59505;DHT22;45321;53.200;5.814;2023-05-07T11:50:04;22.50;61.10
59505;DHT22;45321;53.200;5.814;2023-05-07T11:52:30;22.60;59.50
59505;DHT22;45321;53.200;5.814;2023-05-07T11:54:57;22.70;59.10
59505;DHT22;45321;53.200;5.814;2023-05-07T11:57:24;22.70;59.10
59505;DHT22;45321;53.200;5.814;2023-05-07T11:59:57;22.70;60.80
59505;DHT22;45321;53.200;5.814;2023-05-07T12:02:24;23.00;60.30
59505;DHT22;45321;53.200;5.814;2023-05-07T12:04:51;23.20;59.40
59505;DHT22;45321;53.200;5.814;2023-05-07T12:07:17;23.50;60.20
59505;DHT22;45321;53.200;5.814;2023-05-07T12:09:44;23.70;58.90
59505;DHT22;45321;53.200;5.814;2023-05-07T12:12:10;23.70;56.60
59505;DHT22;45321;53.200;5.814;2023-05-07T12:14:40;23.70;58.10
59505;DHT22;45321;53.200;5.814;2023-05-07T12:17:09;23.70;57.20
59505;DHT22;45321;53.200;5.814;2023-05-07T12:19:36;23.80;58.70
59505;DHT22;45321;53.200;5.814;2023-05-07T12:22:03;24.00;56.10
59505;DHT22;45321;53.200;5.814;2023-05-07T12:24:41;24.10;57.00
59505;DHT22;45321;53.200;5.814;2023-05-07T12:27:07;24.30;56.40
59505;DHT22;45321;53.200;5.814;2023-05-07T12:29:34;24.60;55.80
59505;DHT22;45321;53.200;5.814;2023-05-07T12:32:00;24.70;55.50
59505;DHT22;45321;53.200;5.814;2023-05-07T12:34:26;24.80;53.50
59505;DHT22;45321;53.200;5.814;2023-05-07T12:36:51;24.80;55.80
59505;DHT22;45321;53.200;5.814;2023-05-07T12:39:18;25.10;54.00
59505;DHT22;45321;53.200;5.814;2023-05-07T12:41:58;25.20;55.10
59505;DHT22;45321;53.200;5.814;2023-05-07T12:44:31;25.40;54.70
59505;DHT22;45321;53.200;5.814;2023-05-07T12:46:58;25.50;53.20
59505;DHT22;45321;53.200;5.814;2023-05-07T12:49:26;25.60;52.60
59505;DHT22;45321;53.200;5.814;2023-05-07T12:51:53;25.60;51.90
59505;DHT22;45321;53.200;5.814;2023-05-07T12:54:33;25.70;52.00
59505;DHT22;45321;53.200;5.814;2023-05-07T12:57:06;25.70;51.60
59505;DHT22;45321;53.200;5.814;2023-05-07T12:59:42;25.90;53.70
59505;DHT22;45321;53.200;5.814;2023-05-07T13:02:08;26.10;52.50
59505;DHT22;45321;53.200;5.814;2023-05-07T13:04:34;26.10;49.70
59505;DHT22;45321;53.200;5.814;2023-05-07T13:07:01;26.10;51.90
59505;DHT22;45321;53.200;5.814;2023-05-07T13:09:28;26.20;51.20
59505;DHT22;45321;53.200;5.814;2023-05-07T13:11:57;26.40;50.20
59505;DHT22;45321;53.200;5.814;2023-05-07T13:14:25;26.60;49.60
59505;DHT22;45321;53.200;5.814;2023-05-07T13:16:51;26.50;50.30
59505;DHT22;45321;53.200;5.814;2023-05-07T13:19:16;26.60;51.10
59505;DHT22;45321;53.200;5.814;2023-05-07T13:21:42;26.80;49.30
59505;DHT22;45321;53.200;5.814;2023-05-07T13:24:08;26.90;50.50
59505;DHT22;45321;53.200;5.814;2023-05-07T13:26:34;27.20;49.20
59505;DHT22;45321;53.200;5.814;2023-05-07T13:29:00;27.40;47.50
59505;DHT22;45321;53.200;5.814;2023-05-07T13:31:26;27.60;47.10
59505;DHT22;45321;53.200;5.814;2023-05-07T13:33:52;27.60;47.40
59505;DHT22;45321;53.200;5.814;2023-05-07T13:36:18;27.70;47.00
59505;DHT22;45321;53.200;5.814;2023-05-07T13:38:43;28.00;47.70
59505;DHT22;45321;53.200;5.814;2023-05-07T13:41:09;28.20;46.40
59505;DHT22;45321;53.200;5.814;2023-05-07T13:43:36;28.40;45.10
59505;DHT22;45321;53.200;5.814;2023-05-07T13:46:02;28.60;45.90
59505;DHT22;45321;53.200;5.814;2023-05-07T13:48:28;28.70;45.60
59505;DHT22;45321;53.200;5.814;2023-05-07T13:50:56;28.60;44.70
59505;DHT22;45321;53.200;5.814;2023-05-07T13:53:22;28.60;45.30
59505;DHT22;45321;53.200;5.814;2023-05-07T13:55:48;28.70;45.20
59505;DHT22;45321;53.200;5.814;2023-05-07T13:58:14;28.70;45.00
59505;DHT22;45321;53.200;5.814;2023-05-07T14:00:40;28.60;44.10
59505;DHT22;45321;53.200;5.814;2023-05-07T14:03:05;28.30;44.40
59505;DHT22;45321;53.200;5.814;2023-05-07T14:05:31;28.10;45.00
59505;DHT22;45321;53.200;5.814;2023-05-07T14:07:57;27.80;46.20
59505;DHT22;45321;53.200;5.814;2023-05-07T14:10:24;27.80;44.60
59505;DHT22;45321;53.200;5.814;2023-05-07T14:12:49;27.90;46.80
59505;DHT22;45321;53.200;5.814;2023-05-07T14:15:15;28.00;46.20
59505;DHT22;45321;53.200;5.814;2023-05-07T14:17:42;28.30;45.00
59505;DHT22;45321;53.200;5.814;2023-05-07T14:20:08;28.20;45.70
59505;DHT22;45321;53.200;5.814;2023-05-07T14:22:34;28.10;45.30
59505;DHT22;45321;53.200;5.814;2023-05-07T14:24:59;27.90;45.50
59505;DHT22;45321;53.200;5.814;2023-05-07T14:27:25;27.90;46.00
59505;DHT22;45321;53.200;5.814;2023-05-07T14:29:51;27.70;46.00
59505;DHT22;45321;53.200;5.814;2023-05-07T14:32:20;27.50;45.70
59505;DHT22;45321;53.200;5.814;2023-05-07T14:34:46;27.50;45.50
59505;DHT22;45321;53.200;5.814;2023-05-07T14:37:12;27.40;45.40
59505;DHT22;45321;53.200;5.814;2023-05-07T14:39:38;27.20;46.10
59505;DHT22;45321;53.200;5.814;2023-05-07T14:42:04;26.90;46.80
59505;DHT22;45321;53.200;5.814;2023-05-07T14:44:30;26.70;46.20
59505;DHT22;45321;53.200;5.814;2023-05-07T14:46:56;26.60;47.20
59505;DHT22;45321;53.200;5.814;2023-05-07T14:49:22;26.30;48.00
59505;DHT22;45321;53.200;5.814;2023-05-07T14:51:49;25.90;47.70
59505;DHT22;45321;53.200;5.814;2023-05-07T14:54:15;25.70;48.50
59505;DHT22;45321;53.200;5.814;2023-05-07T14:56:41;25.60;49.40
59505;DHT22;45321;53.200;5.814;2023-05-07T14:59:08;25.60;49.60
59505;DHT22;45321;53.200;5.814;2023-05-07T15:01:37;25.50;50.80
59505;DHT22;45321;53.200;5.814;2023-05-07T15:04:04;25.40;50.40
59505;DHT22;45321;53.200;5.814;2023-05-07T15:06:30;25.50;50.70
59505;DHT22;45321;53.200;5.814;2023-05-07T15:08:56;25.30;49.30
59505;DHT22;45321;53.200;5.814;2023-05-07T15:11:22;25.20;49.80
59505;DHT22;45321;53.200;5.814;2023-05-07T15:13:48;25.20;49.80
59505;DHT22;45321;53.200;5.814;2023-05-07T15:16:14;25.10;50.40
59505;DHT22;45321;53.200;5.814;2023-05-07T15:18:40;25.00;50.30
59505;DHT22;45321;53.200;5.814;2023-05-07T15:21:05;25.10;50.30
59505;DHT22;45321;53.200;5.814;2023-05-07T15:23:31;25.10;50.70
59505;DHT22;45321;53.200;5.814;2023-05-07T15:25:57;25.10;51.20
59505;DHT22;45321;53.200;5.814;2023-05-07T15:28:23;25.00;50.80
59505;DHT22;45321;53.200;5.814;2023-05-07T15:30:49;25.00;51.30
59505;DHT22;45321;53.200;5.814;2023-05-07T15:33:15;25.00;52.20
59505;DHT22;45321;53.200;5.814;2023-05-07T15:35:41;25.00;51.90
59505;DHT22;45321;53.200;5.814;2023-05-07T15:38:07;24.90;50.60
59505;DHT22;45321;53.200;5.814;2023-05-07T15:40:34;24.80;51.10
59505;DHT22;45321;53.200;5.814;2023-05-07T15:43:03;24.80;51.40
59505;DHT22;45321;53.200;5.814;2023-05-07T15:45:28;24.70;52.00